MMHO

General Ignacio P. Garcia International Airport

Hermosillo, Mexico
TAF MMHO 161644Z 1618/1718 12010KT P6SM VC -RA SCT040 BKN070 OVC200 TEMPO 1621/1701 5SM TSRA BKN040CB FM170300 07005KT P6SM SCT040 BKN080 PROB40 1710/1714 5SM RA BKN040CB BKN080 FM171600 22010KT P6SM SCT040 BKN080
Issued Valid From Valid To
Jul-16 @ 16:44 UTC
(3 hours ago)
Jul-16 @ 18:00 UTC
(2 hours ago)
Jul-17 @ 18:00 UTC
(in 22 hours)
Jul-16 @ 18:00 to Jul-17 @ 03:00
TAF MMHO 161644Z 1618/1718 12010KT P6SM VC -RA SCT040 BKN070 OVC200
Wind Visibility Clouds Conditions
120° at 10 knots Greater than 6 miles
  • Scattered at 4,000' AGL
  • Broken at 7,000' AGL
  • Overcast at 20,000' AGL
  • Light Rain
Temporary Jul-16 @ 21:00 to Jul-17 @ 01:00
TEMPO 1621/1701 5SM TSRA BKN040CB
Visibility Clouds Conditions
5 miles
  • Broken at 4,000' AGL
  • Thunderstorm
  • Rain
From Jul-17 @ 03:00 to Jul-17 @ 16:00
FM170300 07005KT P6SM SCT040 BKN080
Wind Visibility Clouds
70° at 5 knots Greater than 6 miles
  • Scattered at 4,000' AGL
  • Broken at 8,000' AGL
Probable  (Probability 40%) Jul-17 @ 10:00 to Jul-17 @ 14:00
PROB40 1710/1714 5SM RA BKN040CB BKN080
Visibility Clouds Conditions
5 miles
  • Broken at 4,000' AGL
  • Broken at 8,000' AGL
  • Rain
From Jul-17 @ 16:00 to Jul-17 @ 18:00
FM171600 22010KT P6SM SCT040 BKN080
Wind Visibility Clouds
220° at 10 knots Greater than 6 miles
  • Scattered at 4,000' AGL
  • Broken at 8,000' AGL
TAF MMHO 161644Z 1618/1718 12010KT P6SM VC -RA SCT040 BKN070 OVC200 TEMPO 1621/1701 5SM TSRA BKN040CB FM170300 07005KT P6SM SCT040 BKN080 PROB40 1710/1714 5SM RA BKN040CB BKN080 FM171600 22010KT P6SM SCT040 BKN080
Issued Jul-16 @ 16:44 UTC
(3 hours ago)
Valid From Jul-16 @ 18:00 UTC
(2 hours ago)
Valid To Jul-17 @ 18:00 UTC
(in 22 hours)
Jul-16 @ 18:00 - Jul-17 @ 03:00
Wind Visibility
120° at 10 knots Greater than 6 miles
Clouds
  • Scattered at 4,000' AGL
  • Broken at 7,000' AGL
  • Overcast at 20,000' AGL
Conditions
  • Light Rain
Temporary Jul-16 @ 21:00 - Jul-17 @ 01:00
Clouds
  • Broken at 4,000' AGL
Conditions
  • Thunderstorm
  • Rain
From Jul-17 @ 03:00 - Jul-17 @ 16:00
Wind Visibility
70° at 5 knots Greater than 6 miles
Clouds
  • Scattered at 4,000' AGL
  • Broken at 8,000' AGL
Probability 40% Probable Jul-17 @ 10:00 - Jul-17 @ 14:00
Clouds
  • Broken at 4,000' AGL
  • Broken at 8,000' AGL
Conditions
  • Rain
From Jul-17 @ 16:00 - Jul-17 @ 18:00
Wind Visibility
220° at 10 knots Greater than 6 miles
Clouds
  • Scattered at 4,000' AGL
  • Broken at 8,000' AGL